EZY871Q LFKB-LFSB
Flight info
| Callsign | EZY871Q |
|---|---|
| Flight time | 1h 3m |
| Altitude | 32000 |
| Route | MEGER Z911 OLETI DCT EVANO DCT PEPAG DCT ABESI DCT UTAVO DCT ELMUR T718 RIGVI |
| Aircraft | A320/M-SDE3FGHIRWY/LB1 |
Departure
| Time | 2026-05-04 17:14 |
|---|---|
| Airport | Bastia-Poretta International airport (LFKB) |
Arrival
| Time | 2026-05-04 18:17 |
|---|---|
| Airport | EuroAirport Basel–Mulhouse–Freiburg (LFSB) |
| Time | Latitude | Longitude | Altitude | Speed | Heading |
|---|---|---|---|---|---|
| 2026-05-04 16:49 | 42.54778 | 9.48175 | 35 ft | 0 kts | 253° |
| 2026-05-04 17:03 | 42.54778 | 9.48176 | 35 ft | 1 kts | 253° |
| 2026-05-04 17:03 | 42.54792 | 9.48237 | 33 ft | 2 kts | 253° |
| 2026-05-04 17:04 | 42.54788 | 9.48296 | 31 ft | 4 kts | 340° |
| 2026-05-04 17:04 | 42.54768 | 9.48304 | 34 ft | 0 kts | 343° |
| 2026-05-04 17:07 | 42.54771 | 9.48303 | 34 ft | 2 kts | 343° |
| 2026-05-04 17:07 | 42.54784 | 9.48298 | 31 ft | 3 kts | 343° |
| 2026-05-04 17:07 | 42.54792 | 9.48294 | 31 ft | 0 kts | 343° |
| 2026-05-04 17:07 | 42.54811 | 9.48287 | 32 ft | 3 kts | 343° |
| 2026-05-04 17:08 | 42.54822 | 9.48282 | 34 ft | 3 kts | 342° |
| 2026-05-04 17:08 | 42.54882 | 9.48256 | 35 ft | 7 kts | 342° |
| 2026-05-04 17:08 | 42.54937 | 9.48238 | 34 ft | 9 kts | 355° |
| 2026-05-04 17:09 | 42.55012 | 9.48225 | 35 ft | 13 kts | 342° |
| 2026-05-04 17:09 | 42.55097 | 9.48189 | 33 ft | 13 kts | 342° |
| 2026-05-04 17:09 | 42.55185 | 9.48152 | 35 ft | 14 kts | 343° |
| 2026-05-04 17:10 | 42.55436 | 9.48046 | 35 ft | 20 kts | 343° |
| 2026-05-04 17:10 | 42.55843 | 9.47878 | 32 ft | 15 kts | 342° |
| 2026-05-04 17:11 | 42.55933 | 9.47896 | 29 ft | 14 kts | 50° |
| 2026-05-04 17:11 | 42.55970 | 9.48021 | 25 ft | 15 kts | 65° |
| 2026-05-04 17:11 | 42.56163 | 9.48001 | 26 ft | 15 kts | 343° |
| 2026-05-04 17:12 | 42.56247 | 9.47936 | 22 ft | 12 kts | 315° |
| 2026-05-04 17:12 | 42.56296 | 9.47941 | 22 ft | 8 kts | 158° |
| 2026-05-04 17:13 | 42.54787 | 9.48589 | 164 ft | 143 kts | 161° |
| 2026-05-04 17:14 | 42.51837 | 9.50019 | 1791 ft | 179 kts | 136° |
| 2026-05-04 17:14 | 42.51386 | 9.51718 | 2051 ft | 216 kts | 90° |
| 2026-05-04 17:14 | 42.52929 | 9.55817 | 2998 ft | 268 kts | 62° |
| 2026-05-04 17:15 | 42.54039 | 9.57886 | 3858 ft | 277 kts | 47° |
| 2026-05-04 17:15 | 42.57621 | 9.59798 | 5637 ft | 290 kts | 354° |
| 2026-05-04 17:16 | 42.60988 | 9.57184 | 7371 ft | 285 kts | 301° |
| 2026-05-04 17:16 | 42.64262 | 9.50457 | 10136 ft | 288 kts | 301° |
| 2026-05-04 17:17 | 42.65403 | 9.48120 | 10557 ft | 309 kts | 301° |
| 2026-05-04 17:17 | 42.69159 | 9.40423 | 12546 ft | 333 kts | 301° |
| 2026-05-04 17:18 | 42.70450 | 9.37786 | 13321 ft | 337 kts | 301° |
| 2026-05-04 17:18 | 42.73691 | 9.33080 | 14751 ft | 350 kts | 322° |
| 2026-05-04 17:19 | 42.78000 | 9.29795 | 16065 ft | 359 kts | 329° |
| 2026-05-04 17:19 | 42.82436 | 9.26548 | 17384 ft | 366 kts | 328° |
| 2026-05-04 17:20 | 42.86956 | 9.23218 | 18613 ft | 374 kts | 329° |
| 2026-05-04 17:20 | 42.91978 | 9.21014 | 19657 ft | 389 kts | 351° |
| 2026-05-04 17:20 | 42.94690 | 9.20745 | 20216 ft | 393 kts | 354° |
| 2026-05-04 17:21 | 43.00183 | 9.20326 | 21318 ft | 398 kts | 354° |
| 2026-05-04 17:21 | 43.05748 | 9.19865 | 22390 ft | 404 kts | 354° |
| 2026-05-04 17:22 | 43.08558 | 9.19640 | 22970 ft | 405 kts | 355° |
| 2026-05-04 17:22 | 43.11383 | 9.19417 | 23530 ft | 408 kts | 355° |
| 2026-05-04 17:23 | 43.19952 | 9.18697 | 24850 ft | 415 kts | 353° |
| 2026-05-04 17:23 | 43.22845 | 9.18451 | 25268 ft | 418 kts | 353° |
| 2026-05-04 17:23 | 43.28686 | 9.17963 | 26129 ft | 422 kts | 352° |
| 2026-05-04 17:24 | 43.31622 | 9.17717 | 26569 ft | 424 kts | 351° |
| 2026-05-04 17:24 | 43.40220 | 9.15135 | 27771 ft | 425 kts | 340° |
| 2026-05-04 17:25 | 43.43095 | 9.14136 | 28171 ft | 427 kts | 340° |
| 2026-05-04 17:25 | 43.48882 | 9.12117 | 29002 ft | 431 kts | 340° |
| 2026-05-04 17:26 | 43.54713 | 9.10089 | 29829 ft | 434 kts | 340° |
| 2026-05-04 17:26 | 43.63562 | 9.06994 | 30733 ft | 442 kts | 339° |
| 2026-05-04 17:27 | 43.69551 | 9.04897 | 31320 ft | 446 kts | 339° |
| 2026-05-04 17:27 | 43.75505 | 9.02816 | 32013 ft | 430 kts | 339° |
| 2026-05-04 17:28 | 43.81210 | 9.00886 | 32068 ft | 421 kts | 343° |
| 2026-05-04 17:29 | 43.98767 | 8.98057 | 32077 ft | 428 kts | 346° |
| 2026-05-04 17:31 | 44.13608 | 8.95675 | 32078 ft | 430 kts | 347° |
| 2026-05-04 17:32 | 44.28486 | 8.93290 | 32081 ft | 431 kts | 347° |
| 2026-05-04 17:33 | 44.40411 | 8.91380 | 32097 ft | 431 kts | 347° |
| 2026-05-04 17:34 | 44.52334 | 8.89457 | 32096 ft | 430 kts | 347° |
| 2026-05-04 17:35 | 44.67159 | 8.87048 | 32093 ft | 430 kts | 348° |
| 2026-05-04 17:36 | 44.73144 | 8.86074 | 32078 ft | 430 kts | 348° |
| 2026-05-04 17:36 | 44.79093 | 8.85104 | 32066 ft | 430 kts | 348° |
| 2026-05-04 17:37 | 44.85041 | 8.84130 | 32071 ft | 430 kts | 348° |
| 2026-05-04 17:37 | 44.90996 | 8.83164 | 32062 ft | 431 kts | 349° |
| 2026-05-04 17:38 | 44.96910 | 8.82185 | 32064 ft | 431 kts | 349° |
| 2026-05-04 17:38 | 45.02868 | 8.81197 | 32104 ft | 431 kts | 349° |
| 2026-05-04 17:39 | 45.11821 | 8.79721 | 32097 ft | 432 kts | 349° |
| 2026-05-04 17:39 | 45.17790 | 8.78733 | 32093 ft | 432 kts | 349° |
| 2026-05-04 17:40 | 45.23768 | 8.77754 | 32047 ft | 432 kts | 349° |
| 2026-05-04 17:40 | 45.29744 | 8.76754 | 32052 ft | 432 kts | 350° |
| 2026-05-04 17:41 | 45.35778 | 8.77115 | 32047 ft | 440 kts | 11° |
| 2026-05-04 17:41 | 45.41630 | 8.79803 | 32052 ft | 443 kts | 16° |
| 2026-05-04 17:42 | 45.47462 | 8.82604 | 32087 ft | 442 kts | 16° |
| 2026-05-04 17:42 | 45.53297 | 8.85397 | 32083 ft | 442 kts | 16° |
| 2026-05-04 17:43 | 45.59121 | 8.88178 | 32077 ft | 442 kts | 16° |
| 2026-05-04 17:43 | 45.64941 | 8.90981 | 32077 ft | 441 kts | 16° |
| 2026-05-04 17:44 | 45.70763 | 8.93770 | 32067 ft | 441 kts | 16° |
| 2026-05-04 17:44 | 45.76577 | 8.96582 | 32068 ft | 441 kts | 16° |
| 2026-05-04 17:45 | 45.82387 | 8.99391 | 32069 ft | 441 kts | 16° |
| 2026-05-04 17:45 | 45.88191 | 9.02193 | 32071 ft | 441 kts | 17° |
| 2026-05-04 17:46 | 45.94015 | 9.05008 | 32069 ft | 441 kts | 16° |
| 2026-05-04 17:46 | 45.99988 | 9.06681 | 32062 ft | 436 kts | 358° |
| 2026-05-04 17:47 | 46.05994 | 9.05933 | 32071 ft | 433 kts | 350° |
| 2026-05-04 17:47 | 46.11990 | 9.04925 | 32043 ft | 434 kts | 351° |
| 2026-05-04 17:48 | 46.18000 | 9.03984 | 32041 ft | 435 kts | 352° |
| 2026-05-04 17:48 | 46.23011 | 9.03337 | 32050 ft | 435 kts | 352° |
| 2026-05-04 17:49 | 46.29044 | 9.02527 | 32054 ft | 436 kts | 352° |
| 2026-05-04 17:49 | 46.35084 | 9.01713 | 32066 ft | 436 kts | 352° |
| 2026-05-04 17:50 | 46.41127 | 9.00906 | 32105 ft | 436 kts | 352° |
| 2026-05-04 17:50 | 46.47167 | 9.00095 | 32099 ft | 436 kts | 352° |
| 2026-05-04 17:51 | 46.53211 | 8.99284 | 32096 ft | 436 kts | 352° |
| 2026-05-04 17:51 | 46.59257 | 8.98469 | 32096 ft | 436 kts | 352° |
| 2026-05-04 17:52 | 46.65302 | 8.97650 | 32079 ft | 436 kts | 352° |
| 2026-05-04 17:52 | 46.71354 | 8.96814 | 32069 ft | 438 kts | 352° |
| 2026-05-04 17:53 | 46.77425 | 8.96005 | 32069 ft | 438 kts | 352° |
| 2026-05-04 17:53 | 46.83505 | 8.95163 | 32056 ft | 439 kts | 352° |
| 2026-05-04 17:54 | 46.89587 | 8.94348 | 32028 ft | 440 kts | 352° |
| 2026-05-04 17:54 | 46.95690 | 8.93507 | 32020 ft | 440 kts | 352° |
| 2026-05-04 17:55 | 47.01787 | 8.92667 | 32020 ft | 439 kts | 352° |
| 2026-05-04 17:55 | 47.07881 | 8.91838 | 32018 ft | 440 kts | 352° |
| 2026-05-04 17:56 | 47.13962 | 8.90784 | 32003 ft | 438 kts | 345° |
| 2026-05-04 17:56 | 47.16858 | 8.89477 | 32000 ft | 434 kts | 333° |
| 2026-05-04 17:56 | 47.19529 | 8.87470 | 31991 ft | 430 kts | 326° |
| 2026-05-04 17:57 | 47.22073 | 8.85214 | 31750 ft | 422 kts | 325° |
| 2026-05-04 17:57 | 47.24575 | 8.82998 | 31495 ft | 419 kts | 325° |
| 2026-05-04 17:57 | 47.27072 | 8.80806 | 31239 ft | 417 kts | 326° |
| 2026-05-04 17:57 | 47.29566 | 8.78618 | 30988 ft | 417 kts | 326° |
| 2026-05-04 17:58 | 47.32048 | 8.76428 | 30735 ft | 416 kts | 326° |
| 2026-05-04 17:58 | 47.34520 | 8.74242 | 30447 ft | 412 kts | 326° |
| 2026-05-04 17:58 | 47.36976 | 8.72072 | 29964 ft | 411 kts | 326° |
| 2026-05-04 17:58 | 47.39425 | 8.69909 | 29481 ft | 408 kts | 326° |
| 2026-05-04 17:59 | 47.41850 | 8.67780 | 29061 ft | 404 kts | 326° |
| 2026-05-04 17:59 | 47.44257 | 8.65663 | 28618 ft | 400 kts | 326° |
| 2026-05-04 17:59 | 47.48983 | 8.61470 | 27763 ft | 393 kts | 325° |
| 2026-05-04 18:00 | 47.51319 | 8.59403 | 27330 ft | 390 kts | 325° |
| 2026-05-04 18:00 | 47.53637 | 8.57348 | 26901 ft | 387 kts | 324° |
| 2026-05-04 18:00 | 47.55942 | 8.55302 | 26469 ft | 385 kts | 324° |
| 2026-05-04 18:00 | 47.58229 | 8.53263 | 26031 ft | 383 kts | 324° |
| 2026-05-04 18:01 | 47.60510 | 8.51231 | 25590 ft | 382 kts | 324° |
| 2026-05-04 18:01 | 47.62783 | 8.49212 | 25145 ft | 380 kts | 324° |
| 2026-05-04 18:01 | 47.65046 | 8.47195 | 24689 ft | 379 kts | 324° |
| 2026-05-04 18:02 | 47.69265 | 8.42677 | 23776 ft | 369 kts | 309° |
| 2026-05-04 18:02 | 47.70880 | 8.39766 | 23298 ft | 364 kts | 301° |
| 2026-05-04 18:02 | 47.72344 | 8.36710 | 22841 ft | 361 kts | 301° |
| 2026-05-04 18:02 | 47.73793 | 8.33684 | 22409 ft | 358 kts | 301° |
| 2026-05-04 18:03 | 47.75236 | 8.30679 | 21976 ft | 356 kts | 301° |
| 2026-05-04 18:03 | 47.76668 | 8.27696 | 21533 ft | 354 kts | 301° |
| 2026-05-04 18:03 | 47.78094 | 8.24732 | 21112 ft | 352 kts | 302° |
| 2026-05-04 18:03 | 47.79511 | 8.21778 | 20687 ft | 350 kts | 301° |
| 2026-05-04 18:04 | 47.80917 | 8.18831 | 20269 ft | 349 kts | 302° |
| 2026-05-04 18:04 | 47.82327 | 8.15898 | 19855 ft | 347 kts | 302° |
| 2026-05-04 18:04 | 47.85115 | 8.10047 | 18985 ft | 347 kts | 302° |
| 2026-05-04 18:05 | 47.86517 | 8.07115 | 18544 ft | 347 kts | 302° |
| 2026-05-04 18:05 | 47.87913 | 8.04193 | 18100 ft | 346 kts | 302° |
| 2026-05-04 18:05 | 47.89289 | 8.01281 | 17673 ft | 344 kts | 302° |
| 2026-05-04 18:05 | 47.90662 | 7.98369 | 17269 ft | 342 kts | 300° |
| 2026-05-04 18:06 | 47.91792 | 7.91638 | 15819 ft | 343 kts | 260° |
| 2026-05-04 18:06 | 47.91189 | 7.88236 | 15316 ft | 339 kts | 248° |
| 2026-05-04 18:06 | 47.90370 | 7.84974 | 14571 ft | 335 kts | 247° |
| 2026-05-04 18:07 | 47.89563 | 7.81728 | 13776 ft | 333 kts | 247° |
| 2026-05-04 18:07 | 47.88760 | 7.78518 | 12947 ft | 329 kts | 247° |
| 2026-05-04 18:07 | 47.87955 | 7.75348 | 12116 ft | 325 kts | 247° |
| 2026-05-04 18:07 | 47.87168 | 7.72217 | 11338 ft | 321 kts | 247° |
| 2026-05-04 18:08 | 47.86392 | 7.69119 | 10570 ft | 317 kts | 247° |
| 2026-05-04 18:08 | 47.85626 | 7.66066 | 9802 ft | 313 kts | 246° |
| 2026-05-04 18:08 | 47.84865 | 7.63040 | 9008 ft | 311 kts | 247° |
| 2026-05-04 18:08 | 47.84122 | 7.60091 | 8482 ft | 298 kts | 246° |
| 2026-05-04 18:09 | 47.82728 | 7.54552 | 7472 ft | 275 kts | 246° |
| 2026-05-04 18:09 | 47.81439 | 7.49448 | 6625 ft | 253 kts | 246° |
| 2026-05-04 18:10 | 47.80697 | 7.47159 | 6211 ft | 241 kts | 234° |
| 2026-05-04 18:10 | 47.79650 | 7.45286 | 5779 ft | 232 kts | 221° |
| 2026-05-04 18:10 | 47.78377 | 7.43869 | 5357 ft | 228 kts | 210° |
| 2026-05-04 18:10 | 47.76937 | 7.42891 | 4935 ft | 228 kts | 199° |
| 2026-05-04 18:11 | 47.75403 | 7.42399 | 4606 ft | 223 kts | 187° |
| 2026-05-04 18:11 | 47.73887 | 7.42563 | 4339 ft | 216 kts | 166° |
| 2026-05-04 18:11 | 47.72523 | 7.43420 | 4091 ft | 210 kts | 157° |
| 2026-05-04 18:11 | 47.71216 | 7.44341 | 3715 ft | 209 kts | 157° |
| 2026-05-04 18:12 | 47.69912 | 7.45262 | 3425 ft | 205 kts | 156° |
| 2026-05-04 18:12 | 47.68649 | 7.46151 | 3202 ft | 195 kts | 156° |
| 2026-05-04 18:12 | 47.67440 | 7.47003 | 2950 ft | 190 kts | 155° |
| 2026-05-04 18:12 | 47.66254 | 7.47839 | 2692 ft | 186 kts | 155° |
| 2026-05-04 18:13 | 47.65114 | 7.48647 | 2425 ft | 176 kts | 155° |
| 2026-05-04 18:13 | 47.64067 | 7.49487 | 2187 ft | 166 kts | 142° |
| 2026-05-04 18:13 | 47.62794 | 7.52178 | 1643 ft | 149 kts | 122° |
| 2026-05-04 18:14 | 47.62335 | 7.53497 | 1564 ft | 143 kts | 98° |
| 2026-05-04 18:14 | 47.62470 | 7.54946 | 1580 ft | 142 kts | 75° |
| 2026-05-04 18:14 | 47.62752 | 7.56346 | 1569 ft | 142 kts | 73° |
| 2026-05-04 18:15 | 47.61960 | 7.58554 | 1558 ft | 145 kts | 178° |
| 2026-05-04 18:15 | 47.60145 | 7.57407 | 1529 ft | 144 kts | 223° |
| 2026-05-04 18:15 | 47.59575 | 7.56127 | 1285 ft | 152 kts | 246° |
| 2026-05-04 18:16 | 47.59269 | 7.54680 | 1042 ft | 144 kts | 255° |
| 2026-05-04 18:16 | 47.59044 | 7.53273 | 894 ft | 132 kts | 256° |
| 2026-05-04 18:16 | 47.58892 | 7.52315 | 893 ft | 66 kts | 257° |
| 2026-05-04 18:17 | 47.58840 | 7.51699 | 891 ft | 14 kts | 327° |
| 2026-05-04 18:17 | 47.58924 | 7.51668 | 890 ft | 11 kts | 358° |
| 2026-05-04 18:17 | 47.59065 | 7.51842 | 890 ft | 15 kts | 46° |
| 2026-05-04 18:18 | 47.59142 | 7.51963 | 890 ft | 17 kts | 46° |
| 2026-05-04 18:18 | 47.59205 | 7.52058 | 890 ft | 12 kts | 45° |
| 2026-05-04 18:18 | 47.59260 | 7.52147 | 890 ft | 12 kts | 58° |
| 2026-05-04 18:18 | 47.59300 | 7.52264 | 890 ft | 15 kts | 64° |
| 2026-05-04 18:19 | 47.59405 | 7.52594 | 889 ft | 20 kts | 64° |
| 2026-05-04 18:19 | 47.59460 | 7.52767 | 890 ft | 17 kts | 64° |
| 2026-05-04 18:19 | 47.59499 | 7.52887 | 890 ft | 11 kts | 64° |
| 2026-05-04 18:20 | 47.59552 | 7.52923 | 890 ft | 8 kts | 345° |
| 2026-05-04 18:20 | 47.59602 | 7.52886 | 890 ft | 8 kts | 333° |
| 2026-05-04 18:20 | 47.59653 | 7.52895 | 890 ft | 10 kts | 48° |
| 2026-05-04 18:20 | 47.59690 | 7.52999 | 890 ft | 10 kts | 57° |
| 2026-05-04 18:21 | 47.59753 | 7.53029 | 890 ft | 9 kts | 3° |
| 2026-05-04 18:21 | 47.59817 | 7.53034 | 890 ft | 9 kts | 3° |
| 2026-05-04 18:21 | 47.59854 | 7.53037 | 890 ft | 2 kts | 3° |
| 2026-05-04 18:21 | 47.59859 | 7.53037 | 890 ft | 0 kts | 3° |